Historique des stations

Station météo de Chailles

Altitude de la station : 86 m







Données météorologiques pour le 16/09/2021
Date
Heure
Températures Humidité Point de rosée Vitesse
du vent
Direction Rafales Windchill Pression Pluviométrie
Cumul
Date
Heure
Températures Humidité Point de rosée Vitesse
du vent
Direction Rafales Windchill Pression Pluviométrie
Cumul
16/09/2021 21:1317.9 °C83 %15.0 °C-NE2 km/h17.91018 hPa13.4 mm
16/09/2021 20:5818.2 °C82 %15.0 °C-NE3 km/h18.21018 hPa13.4 mm
16/09/2021 12:4820.1 °C80 %16.6 °C5 km/hE16 km/h20.11018 hPa13.4 mm
16/09/2021 12:3319.2 °C83 %16.3 °C11 km/hNNE11 km/h19.21018 hPa13.4 mm
16/09/2021 12:1818.6 °C84 %15.9 °C5 km/hNE13 km/h18.61018 hPa13.4 mm
16/09/2021 12:0318.3 °C84 %15.6 °C6 km/hONO15 km/h18.31018 hPa13.4 mm
16/09/2021 11:4818.4 °C84 %15.6 °C5 km/hNE16 km/h18.41018 hPa13.4 mm
16/09/2021 11:3317.9 °C86 %15.5 °C6 km/hE15 km/h17.91018 hPa13.4 mm
16/09/2021 11:1817.8 °C86 %15.5 °C10 km/hNNE13 km/h17.81018 hPa13.4 mm
16/09/2021 11:0317.4 °C86 %15.1 °C8 km/hN15 km/h17.41018 hPa13.4 mm
16/09/2021 10:4817.1 °C87 %14.9 °C13 km/hNNO13 km/h17.11018 hPa13.4 mm
16/09/2021 10:2816.9 °C87 %14.7 °C10 km/hN11 km/h16.91018 hPa13.4 mm
16/09/2021 10:1316.5 °C88 %14.5 °C3 km/hN11 km/h16.51018 hPa13.4 mm
16/09/2021 09:5816.4 °C88 %14.4 °C8 km/hN10 km/h16.41018 hPa13.4 mm
16/09/2021 09:4316.2 °C89 %14.4 °C3 km/hN10 km/h16.21018 hPa13.4 mm
16/09/2021 09:2815.9 °C90 %14.3 °C5 km/hNNE10 km/h15.91018 hPa13.4 mm
16/09/2021 09:1315.8 °C90 %14.1 °C2 km/hN6 km/h15.81018 hPa13.4 mm
16/09/2021 08:5815.7 °C91 %14.3 °C2 km/hN8 km/h15.71017 hPa13.4 mm
16/09/2021 08:4315.7 °C91 %14.3 °C5 km/hN8 km/h15.71017 hPa13.4 mm
16/09/2021 08:2815.6 °C91 %14.1 °C2 km/hENE6 km/h15.61017 hPa13.4 mm
16/09/2021 08:1315.6 °C91 %14.1 °C-NE8 km/h15.61017 hPa13.4 mm
16/09/2021 07:5815.6 °C91 %14.1 °C-NNE6 km/h15.61017 hPa13.4 mm
16/09/2021 07:4315.7 °C91 %14.2 °C2 km/hNE10 km/h15.71017 hPa13.4 mm
16/09/2021 07:2815.7 °C91 %14.3 °C6 km/hN10 km/h15.71017 hPa13.4 mm
16/09/2021 07:0815.8 °C91 %14.4 °C2 km/hNNE8 km/h15.81017 hPa12.4 mm
16/09/2021 06:5315.8 °C91 %14.4 °C3 km/hN8 km/h15.81016 hPa12.2 mm
16/09/2021 06:4315.8 °C91 %14.4 °C8 km/hNNO11 km/h15.81016 hPa12.0 mm
16/09/2021 06:2815.9 °C91 %14.4 °C8 km/hNNE15 km/h15.91016 hPa10.2 mm
16/09/2021 06:2815.9 °C91 %14.4 °C8 km/hNNE15 km/h15.91016 hPa10.2 mm
16/09/2021 06:0816.3 °C91 %14.9 °C5 km/hNE15 km/h16.31016 hPa8.4 mm
16/09/2021 05:5316.6 °C91 %15.1 °C6 km/hNNO16 km/h16.61016 hPa6.6 mm
16/09/2021 05:3816.7 °C91 %15.2 °C5 km/hNNE10 km/h16.71016 hPa6.2 mm
16/09/2021 05:2316.8 °C91 %15.4 °C6 km/hNNE11 km/h16.81016 hPa6.2 mm
16/09/2021 05:0816.9 °C91 %15.5 °C3 km/hENE8 km/h16.91016 hPa6.2 mm
16/09/2021 04:5317.1 °C91 %15.6 °C2 km/hN13 km/h17.11016 hPa6.2 mm
16/09/2021 04:3817.3 °C92 %16.0 °C2 km/hNNE11 km/h17.31016 hPa6.2 mm
16/09/2021 04:2317.6 °C92 %16.3 °C3 km/hN8 km/h17.61016 hPa6.2 mm
16/09/2021 04:0817.7 °C93 %16.5 °C3 km/hN8 km/h17.71016 hPa6.2 mm
16/09/2021 03:5317.7 °C93 %16.6 °C5 km/hN10 km/h17.71016 hPa6.2 mm
16/09/2021 03:3817.8 °C93 %16.7 °C-NE5 km/h17.81016 hPa6.2 mm
16/09/2021 03:2317.8 °C92 %16.5 °C3 km/hNE6 km/h17.81016 hPa6.2 mm
16/09/2021 03:0817.9 °C92 %16.6 °C2 km/hENE6 km/h17.91016 hPa6.2 mm
16/09/2021 02:4818.0 °C92 %16.7 °C-NE6 km/h18.01016 hPa6.2 mm
16/09/2021 02:3318.0 °C92 %16.7 °C2 km/hNE10 km/h18.01016 hPa6.2 mm
16/09/2021 02:1818.1 °C92 %16.7 °C5 km/hN8 km/h18.11016 hPa6.2 mm
16/09/2021 02:0318.1 °C92 %16.8 °C-NNE6 km/h18.11016 hPa6.2 mm
16/09/2021 01:4818.2 °C92 %16.8 °C3 km/hNNE10 km/h18.21016 hPa6.0 mm
16/09/2021 01:3318.2 °C92 %16.9 °C2 km/hN15 km/h18.21016 hPa5.4 mm
16/09/2021 01:1818.4 °C92 %17.1 °C2 km/hNE15 km/h18.41016 hPa2.0 mm
16/09/2021 01:0318.6 °C92 %17.3 °C2 km/hNE6 km/h18.61016 hPa1.4 mm
16/09/2021 00:4818.7 °C92 %17.3 °C2 km/hN6 km/h18.71016 hPa0.6 mm
16/09/2021 00:3318.8 °C92 %17.5 °C3 km/hN5 km/h18.81016 hPa0.2 mm
16/09/2021 00:1818.8 °C92 %17.5 °C3 km/hN5 km/h18.81015 hPa0.0 mm
16/09/2021 00:0318.8 °C91 %17.3 °C2 km/h--18.81015 hPa0.0 mm


Minima :

Température : 15.6 °C
Humidité : 80 %
Point de rosée : 14.1 °C
Vent moyen : 2 km/h
Windchill : 15.6
Pression atm. : 1015 hPa
Maxima :

Température : 20.1 °C
Humidité : 93 %
Point de rosée : 17.5 °C
Vent moyen : 13 km/h
Windchill : 20.1
Pression atm. : 1018 hPa
Rafales max : 16 km/h
Cumul de pluie sur 24H : 13.4 mm

Chailles est une commune du département Loir-et-Cher (41).
La station météorologique du réseau de l'association la plus proche de Chailles est celle de Tour-en-Sologne
Site du propriétaire de la station : http://jmj41.com/meteo/



Icône Facebook Association Météo Centre Icône Twitter Association Météo Centre Icône Chaîne Youtube Association Météo Centre Icône contact Association Météo Centre Icône Insta Association Météo Centre